createdAt,value
2024-01-21T00:01:00.924Z,36.10
2024-01-21T00:03:51.996Z,35.20
2024-01-21T00:06:23.183Z,36.90
2024-01-21T00:08:54.232Z,38.00
2024-01-21T00:11:25.409Z,32.30
2024-01-21T00:13:56.412Z,30.70
2024-01-21T00:16:27.564Z,37.70
2024-01-21T00:18:58.678Z,26.40
2024-01-21T00:21:29.777Z,30.10
2024-01-21T00:24:01.386Z,25.00
2024-01-21T00:26:32.885Z,26.30
2024-01-21T00:29:04.198Z,27.20
2024-01-21T00:31:35.641Z,28.20
2024-01-21T00:34:07.011Z,26.50
2024-01-21T00:36:38.101Z,25.50
2024-01-21T00:39:09.827Z,26.90
2024-01-21T00:41:44.930Z,33.10
2024-01-21T00:44:21.420Z,46.60
2024-01-21T00:46:53.037Z,41.60
2024-01-21T00:49:24.135Z,51.00
2024-01-21T00:51:55.269Z,52.10
2024-01-21T00:54:26.446Z,41.30
2024-01-21T00:56:57.911Z,43.00
2024-01-21T00:59:29.100Z,44.80
2024-01-21T01:02:00.112Z,32.90
2024-01-21T01:04:31.129Z,38.30
2024-01-21T01:07:02.253Z,38.50
2024-01-21T01:09:33.384Z,53.90
2024-01-21T01:12:05.416Z,37.00
2024-01-21T01:14:36.656Z,39.10
2024-01-21T01:17:08.147Z,30.30
2024-01-21T01:19:39.923Z,29.80
2024-01-21T01:22:13.530Z,32.60
2024-01-21T01:24:45.165Z,33.90
2024-01-21T01:27:16.418Z,26.50
2024-01-21T01:29:47.798Z,22.80
2024-01-21T01:32:18.909Z,30.80
2024-01-21T01:34:50.999Z,28.20
2024-01-21T01:37:22.264Z,29.50
2024-01-21T01:39:53.516Z,24.20
2024-01-21T01:42:24.672Z,28.70
2024-01-21T01:44:55.818Z,29.50
2024-01-21T01:47:28.023Z,29.90
2024-01-21T01:50:00.568Z,27.40
2024-01-21T01:52:33.782Z,30.70
2024-01-21T01:55:05.409Z,34.70
2024-01-21T01:57:37.255Z,35.20
2024-01-21T02:00:10.017Z,26.60
2024-01-21T02:02:41.709Z,24.60
2024-01-21T02:05:14.039Z,21.30
2024-01-21T02:07:45.428Z,23.10
2024-01-21T02:10:16.758Z,27.40
2024-01-21T02:12:49.012Z,18.40
2024-01-21T02:15:20.581Z,26.10
2024-01-21T02:17:52.066Z,22.00
2024-01-21T02:20:24.302Z,19.00
2024-01-21T02:23:00.740Z,17.30
2024-01-21T02:25:32.609Z,19.10
2024-01-21T02:28:04.256Z,19.40
2024-01-21T02:30:42.246Z,16.00
2024-01-21T02:33:14.727Z,20.30
2024-01-21T02:35:46.498Z,16.50
2024-01-21T02:38:17.721Z,18.50
2024-01-21T02:40:48.960Z,18.00
2024-01-21T02:43:20.057Z,21.20
2024-01-21T02:45:51.809Z,21.50
2024-01-21T02:48:23.182Z,17.00
2024-01-21T02:50:54.428Z,20.80
2024-01-21T02:53:25.576Z,16.20
2024-01-21T02:55:56.574Z,23.70
2024-01-21T02:58:27.907Z,20.40
2024-01-21T03:00:59.451Z,18.40
2024-01-21T03:03:30.688Z,21.50
2024-01-21T03:06:01.816Z,13.40
2024-01-21T03:08:33.315Z,17.90
2024-01-21T03:11:04.505Z,25.60
2024-01-21T03:13:35.660Z,17.70
2024-01-21T03:16:07.529Z,15.60
2024-01-21T03:18:40.383Z,24.40
2024-01-21T03:21:11.800Z,32.30
2024-01-21T03:23:42.981Z,33.20
2024-01-21T03:26:14.343Z,20.20
2024-01-21T03:28:45.653Z,20.30
2024-01-21T03:31:19.649Z,14.60
2024-01-21T03:33:51.121Z,17.70
2024-01-21T03:36:22.294Z,14.60
2024-01-21T03:38:53.459Z,16.70
2024-01-21T03:41:24.657Z,20.20
2024-01-21T03:43:55.799Z,17.50
2024-01-21T03:46:27.862Z,21.60
2024-01-21T03:48:59.166Z,15.00
2024-01-21T03:51:30.196Z,18.40
2024-01-21T03:54:01.311Z,16.00
2024-01-21T03:56:33.283Z,16.80
2024-01-21T03:59:04.430Z,13.90
2024-01-21T04:01:35.572Z,15.40
2024-01-21T04:04:07.596Z,14.50
2024-01-21T04:06:43.750Z,16.10
2024-01-21T04:09:16.438Z,13.10
2024-01-21T04:11:48.015Z,12.90
2024-01-21T04:14:19.436Z,23.40
2024-01-21T04:16:50.610Z,19.00
2024-01-21T04:19:22.649Z,16.30
2024-01-21T04:21:54.025Z,12.80
2024-01-21T04:24:25.485Z,13.10
2024-01-21T04:26:56.826Z,14.50
2024-01-21T04:29:27.981Z,15.10
2024-01-21T04:31:59.096Z,14.00
2024-01-21T04:34:30.361Z,14.00
2024-01-21T04:37:02.511Z,14.20
2024-01-21T04:39:33.775Z,13.90
2024-01-21T04:42:05.380Z,17.90
2024-01-21T04:44:36.539Z,19.80
2024-01-21T04:47:08.015Z,20.10
2024-01-21T04:49:39.449Z,18.70
2024-01-21T04:52:10.791Z,13.00
2024-01-21T04:54:42.039Z,12.50
2024-01-21T04:57:13.367Z,14.00
2024-01-21T04:59:44.671Z,16.70
2024-01-21T05:02:16.131Z,16.80
2024-01-21T05:04:47.489Z,14.80
2024-01-21T05:07:18.809Z,11.00
2024-01-21T05:09:50.331Z,9.00
2024-01-21T05:12:21.425Z,15.50
2024-01-21T05:14:53.119Z,15.60
2024-01-21T05:17:24.252Z,16.20
2024-01-21T05:19:55.457Z,16.40
2024-01-21T05:22:26.645Z,21.50
2024-01-21T05:24:57.755Z,20.70
2024-01-21T05:27:29.097Z,12.40
2024-01-21T05:30:00.356Z,15.00
2024-01-21T05:32:33.347Z,10.40
2024-01-21T05:35:04.850Z,11.70
2024-01-21T05:37:36.259Z,15.20
2024-01-21T05:40:08.943Z,18.20
2024-01-21T05:42:40.097Z,21.80
2024-01-21T05:45:12.669Z,14.80
2024-01-21T05:47:43.842Z,19.60
2024-01-21T05:50:15.363Z,15.70
2024-01-21T05:52:46.591Z,14.30
2024-01-21T05:55:17.808Z,17.80
2024-01-21T05:57:49.205Z,22.70
2024-01-21T06:00:21.423Z,26.20
2024-01-21T06:05:23.443Z,13.20
2024-01-21T06:07:54.684Z,10.10
2024-01-21T06:10:25.750Z,21.40
2024-01-21T06:12:57.026Z,10.60
2024-01-21T06:15:28.386Z,15.70
2024-01-21T06:17:59.946Z,20.20
2024-01-21T06:20:31.672Z,16.60
2024-01-21T06:23:02.711Z,19.90
2024-01-21T06:25:33.872Z,21.10
2024-01-21T06:28:05.417Z,19.40
2024-01-21T06:30:36.521Z,16.20
2024-01-21T06:33:07.951Z,19.40
2024-01-21T06:35:39.018Z,14.90
2024-01-21T06:38:10.616Z,8.50
2024-01-21T06:40:41.809Z,14.40
2024-01-21T06:43:13.032Z,26.80
2024-01-21T06:45:44.153Z,26.10
2024-01-21T06:48:15.614Z,12.60
2024-01-21T06:50:49.784Z,21.50
2024-01-21T06:53:20.983Z,20.20
2024-01-21T06:55:52.141Z,14.10
2024-01-21T06:58:23.227Z,21.40
2024-01-21T07:00:54.447Z,20.40
2024-01-21T07:03:25.597Z,18.60
2024-01-21T07:05:56.947Z,15.60
2024-01-21T07:08:28.588Z,20.50
2024-01-21T07:10:59.646Z,18.20
2024-01-21T07:13:30.859Z,19.10
2024-01-21T07:16:02.482Z,37.10
2024-01-21T07:18:33.685Z,30.20
2024-01-21T07:21:05.038Z,22.30
2024-01-21T07:23:39.152Z,21.50
2024-01-21T07:26:10.401Z,22.80
2024-01-21T07:28:41.403Z,30.00
2024-01-21T07:31:12.577Z,19.80
2024-01-21T07:33:43.836Z,23.20
2024-01-21T07:36:17.409Z,20.80
2024-01-21T07:38:48.491Z,19.70
2024-01-21T07:41:19.680Z,12.30
2024-01-21T07:43:50.807Z,14.40
2024-01-21T07:46:22.001Z,27.40
2024-01-21T07:48:55.837Z,28.50
2024-01-21T07:51:27.185Z,23.20
2024-01-21T07:53:58.522Z,19.90
2024-01-21T07:56:29.720Z,17.60
2024-01-21T07:59:00.779Z,22.60
2024-01-21T08:01:32.245Z,39.90
2024-01-21T08:04:03.954Z,29.10
2024-01-21T08:06:35.331Z,29.10
2024-01-21T08:09:06.628Z,44.70
2024-01-21T08:11:37.787Z,53.10
2024-01-21T08:14:08.871Z,58.30
2024-01-21T08:16:40.340Z,44.50
2024-01-21T08:19:11.596Z,29.50
2024-01-21T08:21:43.418Z,30.50
2024-01-21T08:24:14.496Z,33.70
2024-01-21T08:26:48.313Z,24.60
2024-01-21T08:29:19.421Z,33.90
2024-01-21T08:31:50.683Z,32.70
2024-01-21T08:34:22.021Z,32.90
2024-01-21T08:36:53.373Z,38.70
2024-01-21T08:39:24.856Z,49.10
2024-01-21T08:41:56.548Z,62.00
2024-01-21T08:44:27.739Z,64.90
2024-01-21T08:47:00.327Z,47.90
2024-01-21T08:49:33.322Z,51.90
2024-01-21T08:52:04.875Z,42.60
2024-01-21T08:54:36.328Z,46.40
2024-01-21T08:57:07.954Z,43.60
2024-01-21T09:02:09.816Z,40.10
2024-01-21T09:04:43.290Z,53.50
2024-01-21T09:07:15.558Z,50.70
2024-01-21T09:09:46.850Z,45.50
2024-01-21T09:12:19.013Z,39.70
2024-01-21T09:14:49.993Z,47.00
2024-01-21T09:17:21.077Z,43.10
2024-01-21T09:19:52.339Z,35.70
2024-01-21T09:22:23.595Z,34.70
2024-01-21T09:24:55.163Z,34.60
2024-01-21T09:27:26.534Z,49.70
2024-01-21T09:29:57.844Z,56.80
2024-01-21T09:32:29.496Z,81.70
2024-01-21T09:35:00.779Z,83.60
2024-01-21T09:37:34.074Z,62.50
2024-01-21T09:40:05.909Z,55.40
2024-01-21T09:45:08.287Z,64.80
2024-01-21T09:47:41.272Z,69.70
2024-01-21T09:50:15.108Z,74.80
2024-01-21T09:52:46.319Z,74.30
2024-01-21T09:55:17.433Z,91.70
2024-01-21T09:57:48.585Z,104.10
2024-01-21T10:00:20.928Z,76.50
2024-01-21T10:02:53.593Z,70.70
2024-01-21T10:05:24.741Z,76.10
2024-01-21T10:07:56.312Z,72.10
2024-01-21T10:10:28.628Z,69.10
2024-01-21T10:12:59.799Z,83.80
2024-01-21T10:15:32.844Z,84.40
2024-01-21T10:18:04.236Z,161.30
2024-01-21T10:20:37.675Z,205.00
2024-01-21T10:23:13.704Z,132.70
2024-01-21T10:25:48.840Z,121.80
2024-01-21T10:28:20.172Z,74.50
2024-01-21T10:30:51.294Z,104.20
2024-01-21T10:33:22.706Z,130.80
2024-01-21T10:35:55.626Z,205.90
2024-01-21T10:38:30.909Z,280.70
2024-01-21T10:41:03.263Z,281.00
2024-01-21T10:43:37.448Z,179.50
2024-01-21T10:46:12.069Z,157.20
2024-01-21T10:48:44.431Z,124.20
2024-01-21T10:51:16.621Z,117.50
2024-01-21T10:53:48.474Z,89.70
2024-01-21T10:56:20.470Z,79.60
2024-01-21T10:58:52.209Z,91.80
2024-01-21T11:01:25.832Z,92.30
2024-01-21T11:04:08.889Z,63.00
2024-01-21T11:06:43.031Z,58.50
2024-01-21T11:09:17.791Z,50.10
2024-01-21T11:11:55.062Z,39.10
2024-01-21T11:14:35.923Z,38.20
2024-01-21T11:17:09.141Z,35.70
2024-01-21T11:19:52.624Z,30.30
2024-01-21T11:22:25.717Z,26.00
2024-01-21T11:24:58.042Z,27.00
2024-01-21T11:27:30.672Z,23.20
2024-01-21T11:30:03.048Z,20.20
2024-01-21T11:32:34.298Z,19.70
2024-01-21T11:35:15.051Z,14.70
2024-01-21T11:37:53.507Z,18.10
2024-01-21T11:40:25.377Z,15.20
2024-01-21T11:42:56.949Z,12.50
2024-01-21T11:48:01.411Z,13.80
2024-01-21T11:50:34.473Z,9.70
2024-01-21T11:53:06.576Z,10.00
2024-01-21T11:55:37.595Z,10.90
2024-01-21T11:58:08.936Z,11.00
2024-01-21T12:00:40.237Z,11.60
2024-01-21T12:03:11.362Z,11.20
2024-01-21T12:05:44.078Z,13.00
2024-01-21T12:08:15.380Z,12.50
2024-01-21T12:10:48.041Z,13.50
2024-01-21T12:13:19.111Z,15.50
2024-01-21T12:15:53.751Z,15.30
2024-01-21T12:18:26.005Z,15.90
2024-01-21T12:20:57.383Z,15.70
2024-01-21T12:23:28.460Z,14.70
2024-01-21T12:25:59.639Z,18.20
2024-01-21T12:28:30.744Z,14.60
2024-01-21T12:31:02.219Z,14.00
2024-01-21T12:36:03.132Z,10.60
2024-01-21T12:38:34.917Z,12.10
2024-01-21T12:41:07.537Z,13.10
2024-01-21T12:43:38.978Z,12.80
2024-01-21T12:46:10.221Z,13.80
2024-01-21T12:51:11.447Z,13.20
2024-01-21T12:53:42.620Z,13.20
2024-01-21T12:56:13.688Z,14.00
2024-01-21T12:58:44.957Z,12.30
2024-01-21T13:01:17.416Z,12.20
2024-01-21T13:03:50.110Z,11.20
2024-01-21T13:06:22.052Z,17.00
2024-01-21T13:08:53.707Z,14.40
2024-01-21T13:11:25.298Z,9.00
2024-01-21T13:13:56.316Z,10.20
2024-01-21T13:16:27.483Z,11.40
2024-01-21T13:18:58.774Z,11.80
2024-01-21T13:23:59.637Z,9.30
2024-01-21T13:26:31.099Z,10.60
2024-01-21T13:29:25.603Z,11.80
2024-01-21T13:31:56.899Z,9.90
2024-01-21T13:34:28.427Z,12.20
2024-01-21T13:36:59.938Z,12.10
2024-01-21T13:39:31.052Z,14.40
2024-01-21T13:42:02.382Z,14.50
2024-01-21T13:44:35.284Z,13.70
2024-01-21T13:47:07.109Z,14.20
2024-01-21T13:49:38.497Z,15.80
2024-01-21T13:54:46.084Z,14.70
2024-01-21T13:57:17.944Z,17.90
2024-01-21T13:59:49.139Z,16.70
2024-01-21T14:02:20.609Z,16.30
2024-01-21T14:07:22.044Z,14.50
2024-01-21T14:09:53.648Z,15.50
2024-01-21T14:14:55.679Z,13.80
2024-01-21T14:17:27.934Z,14.00
2024-01-21T14:19:59.285Z,16.10
2024-01-21T14:22:30.764Z,13.40
2024-01-21T14:25:07.400Z,15.20
2024-01-21T14:27:38.752Z,15.90
2024-01-21T14:30:17.847Z,17.30
2024-01-21T14:32:48.992Z,16.60
2024-01-21T14:35:20.039Z,15.80
2024-01-21T14:37:51.105Z,15.20
2024-01-21T14:40:24.594Z,19.10
2024-01-21T14:42:56.095Z,18.90
2024-01-21T14:45:27.355Z,47.60
2024-01-21T14:47:59.046Z,40.80
2024-01-21T14:50:31.015Z,18.60
2024-01-21T14:53:02.458Z,20.00
2024-01-21T14:55:33.650Z,15.30
2024-01-21T14:58:05.041Z,27.80
2024-01-21T15:00:41.324Z,18.50
2024-01-21T15:03:12.556Z,17.80
2024-01-21T15:05:45.537Z,16.60
2024-01-21T15:08:17.229Z,18.60
2024-01-21T15:10:48.704Z,19.40
2024-01-21T15:13:24.730Z,15.90
2024-01-21T15:15:56.028Z,15.00
2024-01-21T15:18:34.452Z,15.90
2024-01-21T15:21:06.654Z,23.20
2024-01-21T15:23:37.629Z,21.00
2024-01-21T15:26:08.808Z,21.80
2024-01-21T15:28:40.155Z,18.70
2024-01-21T15:31:11.549Z,24.30
2024-01-21T15:33:42.716Z,19.20
2024-01-21T15:36:14.376Z,16.80
2024-01-21T15:38:45.530Z,26.10
2024-01-21T15:41:17.076Z,20.80
2024-01-21T15:46:18.098Z,20.50
2024-01-21T15:48:49.405Z,18.90
2024-01-21T15:51:22.487Z,20.40
2024-01-21T15:53:53.697Z,22.40
2024-01-21T15:56:24.863Z,29.80
2024-01-21T15:58:56.061Z,35.40
2024-01-21T16:01:27.410Z,29.00
2024-01-21T16:03:59.605Z,22.90
2024-01-21T16:06:31.117Z,23.00
2024-01-21T16:09:05.400Z,22.90
2024-01-21T16:11:36.481Z,20.50
2024-01-21T16:14:08.052Z,27.60
2024-01-21T16:16:40.135Z,26.00
2024-01-21T16:19:11.691Z,22.50
2024-01-21T16:21:42.998Z,21.80
2024-01-21T16:24:14.765Z,19.80
2024-01-21T16:26:46.069Z,30.70
2024-01-21T16:31:47.505Z,16.20
2024-01-21T16:34:18.850Z,55.00
2024-01-21T16:36:50.062Z,27.80
2024-01-21T16:39:22.037Z,21.10
2024-01-21T16:41:53.376Z,22.80
2024-01-21T16:44:25.082Z,19.40
2024-01-21T16:46:56.147Z,21.40
2024-01-21T16:49:28.043Z,17.80
2024-01-21T16:52:06.306Z,26.10
2024-01-21T16:54:37.358Z,21.40
2024-01-21T16:57:08.621Z,13.90
2024-01-21T16:59:43.327Z,21.00
2024-01-21T17:02:20.895Z,24.30
2024-01-21T17:04:52.494Z,24.60
2024-01-21T17:07:23.622Z,27.00
2024-01-21T17:10:00.493Z,29.90
2024-01-21T17:12:39.924Z,27.90
2024-01-21T17:15:12.862Z,30.40
2024-01-21T17:17:50.453Z,32.60
2024-01-21T17:20:21.611Z,37.70
2024-01-21T17:22:52.860Z,23.80
2024-01-21T17:25:25.600Z,22.80
2024-01-21T17:27:56.905Z,18.70
2024-01-21T17:30:28.015Z,24.20
2024-01-21T17:32:59.208Z,20.10
2024-01-21T17:35:31.446Z,16.70
2024-01-21T17:38:02.564Z,22.30
2024-01-21T17:40:33.663Z,45.60
2024-01-21T17:43:05.476Z,74.90
2024-01-21T17:45:36.854Z,43.50
2024-01-21T17:48:09.110Z,43.00
2024-01-21T17:50:41.084Z,36.40
2024-01-21T17:53:12.773Z,32.50
2024-01-21T17:55:44.399Z,39.80
2024-01-21T18:00:45.656Z,50.10
2024-01-21T18:03:16.848Z,63.30
2024-01-21T18:05:48.076Z,73.50
2024-01-21T18:08:19.267Z,62.40
2024-01-21T18:10:50.417Z,81.20
2024-01-21T18:13:21.384Z,88.20
2024-01-21T18:15:52.575Z,92.50
2024-01-21T18:18:24.873Z,68.10
2024-01-21T18:20:57.289Z,39.10
2024-01-21T18:23:29.867Z,40.50
2024-01-21T18:26:00.995Z,42.90
2024-01-21T18:28:32.482Z,39.80
2024-01-21T18:31:04.089Z,62.20
2024-01-21T18:33:35.787Z,52.90
2024-01-21T18:36:07.493Z,49.10
2024-01-21T18:41:08.127Z,45.20
2024-01-21T18:43:39.193Z,44.70
2024-01-21T18:46:10.279Z,50.70
2024-01-21T18:48:41.617Z,53.70
2024-01-21T18:51:15.564Z,42.30
2024-01-21T18:53:46.705Z,48.50
2024-01-21T18:56:25.848Z,39.80
2024-01-21T18:58:57.368Z,36.90
2024-01-21T19:01:28.414Z,43.50
2024-01-21T19:04:00.011Z,54.50
2024-01-21T19:06:31.396Z,71.40
2024-01-21T19:09:02.600Z,98.20
2024-01-21T19:11:34.124Z,118.70
2024-01-21T19:14:05.144Z,84.80
2024-01-21T19:16:36.333Z,84.30
2024-01-21T19:19:13.222Z,75.00
2024-01-21T19:21:44.487Z,69.40
2024-01-21T19:24:16.467Z,62.70
2024-01-21T19:26:48.219Z,62.00
2024-01-21T19:31:50.151Z,41.70
2024-01-21T19:34:21.173Z,45.90
2024-01-21T19:36:53.494Z,41.40
2024-01-21T19:39:24.786Z,32.90
2024-01-21T19:41:56.115Z,28.70
2024-01-21T19:44:27.754Z,35.60
2024-01-21T19:46:58.846Z,28.20
2024-01-21T19:49:30.359Z,34.10
2024-01-21T19:52:01.576Z,34.30
2024-01-21T19:54:36.170Z,31.20
2024-01-21T19:57:08.269Z,35.10
2024-01-21T19:59:39.562Z,31.20
2024-01-21T20:02:12.973Z,31.20
2024-01-21T20:04:44.123Z,39.30
2024-01-21T20:07:17.280Z,39.50
2024-01-21T20:09:48.489Z,36.40
2024-01-21T20:12:19.608Z,36.00
2024-01-21T20:14:51.097Z,29.80
2024-01-21T20:17:22.058Z,46.90
2024-01-21T20:19:53.179Z,60.50
2024-01-21T20:22:24.432Z,49.60
2024-01-21T20:24:56.168Z,48.50
2024-01-21T20:27:27.256Z,55.20
2024-01-21T20:29:59.715Z,58.60
2024-01-21T20:32:30.910Z,60.10
2024-01-21T20:35:02.865Z,103.30
2024-01-21T20:37:35.385Z,82.40
2024-01-21T20:40:08.059Z,60.90
2024-01-21T20:42:39.308Z,55.30
2024-01-21T20:45:11.626Z,60.20
2024-01-21T20:47:42.923Z,42.00
2024-01-21T20:50:14.270Z,36.20
2024-01-21T20:52:45.253Z,32.90
2024-01-21T20:55:16.870Z,46.10
2024-01-21T20:57:48.302Z,54.10
2024-01-21T21:00:21.027Z,51.60
2024-01-21T21:02:52.215Z,46.30
2024-01-21T21:05:29.031Z,45.00
2024-01-21T21:08:00.955Z,52.90
2024-01-21T21:10:32.006Z,58.80
2024-01-21T21:13:03.193Z,40.20
2024-01-21T21:15:35.892Z,32.40
2024-01-21T21:18:07.337Z,27.90
2024-01-21T21:20:38.715Z,26.60
2024-01-21T21:23:09.838Z,17.10
2024-01-21T21:25:40.917Z,26.50
2024-01-21T21:28:12.254Z,26.30
2024-01-21T21:30:43.382Z,38.10
2024-01-21T21:33:14.554Z,38.90
2024-01-21T21:35:47.224Z,31.50
2024-01-21T21:38:19.146Z,34.40
2024-01-21T21:40:50.691Z,45.00
2024-01-21T21:43:22.012Z,32.50
2024-01-21T21:45:53.074Z,27.50
2024-01-21T21:48:24.767Z,34.80
2024-01-21T21:50:56.122Z,37.20
2024-01-21T21:53:27.480Z,41.50
2024-01-21T21:55:58.913Z,35.10
2024-01-21T21:58:30.829Z,47.60
2024-01-21T22:01:02.310Z,40.90
2024-01-21T22:06:09.124Z,34.70
2024-01-21T22:08:40.674Z,43.10
2024-01-21T22:11:11.592Z,46.60
2024-01-21T22:13:42.949Z,44.40
2024-01-21T22:16:14.333Z,36.30
2024-01-21T22:18:46.018Z,42.00
2024-01-21T22:21:22.462Z,38.20
2024-01-21T22:23:53.620Z,28.20
2024-01-21T22:26:24.702Z,35.80
2024-01-21T22:28:55.784Z,31.10
2024-01-21T22:31:26.855Z,33.30
2024-01-21T22:33:58.104Z,45.00
2024-01-21T22:36:29.199Z,30.20
2024-01-21T22:39:00.544Z,35.10
2024-01-21T22:41:32.140Z,34.30
2024-01-21T22:44:03.622Z,47.80
2024-01-21T22:46:34.839Z,40.20
2024-01-21T22:49:06.462Z,35.90
2024-01-21T22:51:37.751Z,48.00
2024-01-21T22:54:09.115Z,48.60
2024-01-21T22:56:40.340Z,27.80
2024-01-21T22:59:11.404Z,26.20
2024-01-21T23:01:43.203Z,23.00
2024-01-21T23:04:14.319Z,21.10
2024-01-21T23:06:45.747Z,27.20
2024-01-21T23:09:17.114Z,30.20
2024-01-21T23:11:48.262Z,32.20
2024-01-21T23:14:19.267Z,29.80
2024-01-21T23:16:50.400Z,25.90
2024-01-21T23:19:21.629Z,16.90
2024-01-21T23:21:52.740Z,22.00
2024-01-21T23:24:24.060Z,25.20
2024-01-21T23:26:55.374Z,22.20
2024-01-21T23:29:26.546Z,27.40
2024-01-21T23:31:58.066Z,33.40
2024-01-21T23:34:29.245Z,44.80
2024-01-21T23:37:00.522Z,28.30
2024-01-21T23:39:31.963Z,41.80
2024-01-21T23:42:03.240Z,27.00
2024-01-21T23:44:34.417Z,39.00
2024-01-21T23:47:05.758Z,28.70
2024-01-21T23:49:36.860Z,23.60
2024-01-21T23:52:09.282Z,23.00
2024-01-21T23:57:13.824Z,22.10
2024-01-21T23:59:46.661Z,21.40
